Time;durP1;ratioP1;P1;durP2;ratioP2;P2;SDS_P1;SDS_P2;PMS_P1;PMS_P2;Temp;Humidity;BMP_temperature;BMP_pressure;BME280_temperature;BME280_humidity;BME280_pressure;Samples;Min_cycle;Max_cycle;Signal;HPM_P1;HPM_P2
2022/09/19 00:00:29;;;;;;;358.07;154.77;;;;;;;;;;5003665;28;20235;-54
2022/09/19 00:02:56;;;;;;;320.57;140.23;;;;;;;;;;5002315;28;20220;-54
2022/09/19 00:05:22;;;;;;;311.40;138.50;;;;;;;;;;5007148;28;20556;-54
2022/09/19 00:07:48;;;;;;;311.27;139.00;;;;;;;;;;5004286;28;20283;-54
2022/09/19 00:10:14;;;;;;;268.23;125.53;;;;;;;;;;4999929;28;20188;-54
2022/09/19 00:12:40;;;;;;;291.87;130.83;;;;;;;;;;5013295;28;20220;-54
2022/09/19 00:15:06;;;;;;;311.43;139.33;;;;;;;;;;4983745;28;20207;-55
2022/09/19 00:17:32;;;;;;;381.37;163.30;;;;;;;;;;5000745;28;20193;-54
2022/09/19 00:19:58;;;;;;;291.23;133.10;;;;;;;;;;4992761;28;20700;-54
2022/09/19 00:22:24;;;;;;;321.83;145.10;;;;;;;;;;5009556;28;20188;-54
2022/09/19 00:24:50;;;;;;;285.83;130.80;;;;;;;;;;5007908;28;20204;-56
2022/09/19 00:27:18;;;;;;;303.93;137.30;;;;;;;;;;5007359;28;20216;-55
2022/09/19 00:29:44;;;;;;;288.20;133.07;;;;;;;;;;5001138;28;20525;-54
2022/09/19 00:32:12;;;;;;;275.70;129.30;;;;;;;;;;5006852;28;20200;-54
2022/09/19 00:34:39;;;;;;;281.93;127.70;;;;;;;;;;5010024;28;20208;-54
2022/09/19 00:37:05;;;;;;;296.37;132.53;;;;;;;;;;5011288;28;20426;-54
2022/09/19 00:39:31;;;;;;;331.20;146.07;;;;;;;;;;5013439;28;20210;-54
2022/09/19 00:41:57;;;;;;;349.87;153.13;;;;;;;;;;5014212;28;20659;-54
2022/09/19 00:44:23;;;;;;;329.03;145.73;;;;;;;;;;4998020;28;20208;-54
2022/09/19 00:46:51;;;;;;;383.87;162.17;;;;;;;;;;4998238;28;20270;-54
2022/09/19 00:49:18;;;;;;;324.53;140.53;;;;;;;;;;5012209;28;20306;-54
2022/09/19 00:51:48;;;;;;;302.83;136.23;;;;;;;;;;4997711;28;21073;-54
2022/09/19 00:54:16;;;;;;;312.43;139.57;;;;;;;;;;5007886;28;20655;-54
2022/09/19 00:56:44;;;;;;;254.87;119.30;;;;;;;;;;5019873;28;20196;-54
2022/09/19 00:59:10;;;;;;;298.63;133.77;;;;;;;;;;5012834;28;20337;-54
2022/09/19 01:01:38;;;;;;;323.93;142.23;;;;;;;;;;5004981;28;20204;-54
2022/09/19 01:04:14;;;;;;;296.17;134.50;;;;;;;;;;5010279;28;20286;-54
2022/09/19 01:06:53;;;;;;;248.83;116.67;;;;;;;;;;5003272;28;20271;-54
2022/09/19 01:09:25;;;;;;;386.20;167.43;;;;;;;;;;4997111;28;20238;-54
2022/09/19 01:12:13;;;;;;;286.53;131.43;;;;;;;;;;5002079;28;20232;-54
2022/09/19 01:14:42;;;;;;;335.23;145.80;;;;;;;;;;5005461;28;20196;-54
2022/09/19 01:17:15;;;;;;;325.47;143.47;;;;;;;;;;5007272;28;20196;-54
2022/09/19 01:19:47;;;;;;;316.20;140.20;;;;;;;;;;5011563;28;20215;-54
2022/09/19 01:22:19;;;;;;;244.40;118.27;;;;;;;;;;5002278;28;20395;-54
2022/09/19 01:25:11;;;;;;;304.03;138.83;;;;;;;;;;5017790;28;20211;-54
2022/09/19 01:27:46;;;;;;;278.13;125.47;;;;;;;;;;4967225;28;20196;-54
2022/09/19 01:30:13;;;;;;;286.77;130.90;;;;;;;;;;4993780;28;20731;-54
2022/09/19 01:32:51;;;;;;;315.77;139.47;;;;;;;;;;5007287;28;20235;-54
2022/09/19 01:35:20;;;;;;;330.83;142.80;;;;;;;;;;5003465;28;20585;-54
2022/09/19 01:37:50;;;;;;;300.37;135.43;;;;;;;;;;5001547;28;20176;-54
2022/09/19 01:40:17;;;;;;;295.23;132.87;;;;;;;;;;5013363;28;20215;-54
2022/09/19 01:42:55;;;;;;;275.20;127.63;;;;;;;;;;5007993;28;20212;-54
2022/09/19 01:45:22;;;;;;;336.63;147.53;;;;;;;;;;5012174;28;20208;-54
2022/09/19 01:47:57;;;;;;;295.20;134.60;;;;;;;;;;5002966;28;20184;-54
2022/09/19 01:50:31;;;;;;;386.93;164.83;;;;;;;;;;5007694;28;20202;-54
2022/09/19 01:53:00;;;;;;;281.67;130.10;;;;;;;;;;5008975;28;20212;-54
2022/09/19 01:55:44;;;;;;;314.83;143.57;;;;;;;;;;5004230;28;20585;-54
2022/09/19 01:58:29;;;;;;;251.93;120.00;;;;;;;;;;5006788;28;20537;-54
2022/09/19 02:01:05;;;;;;;271.07;125.90;;;;;;;;;;5007871;28;20196;-54
2022/09/19 02:03:36;;;;;;;292.27;133.67;;;;;;;;;;5011277;28;20180;-54
2022/09/19 02:06:14;;;;;;;336.83;148.30;;;;;;;;;;5002837;28;20231;-55
2022/09/19 02:08:51;;;;;;;308.33;137.30;;;;;;;;;;5005164;28;20681;-54
2022/09/19 02:11:18;;;;;;;248.67;119.33;;;;;;;;;;5013084;28;20213;-54
2022/09/19 02:13:48;;;;;;;267.87;123.77;;;;;;;;;;5009767;28;20623;-54
2022/09/19 02:16:19;;;;;;;258.43;121.33;;;;;;;;;;5007224;28;20246;-54
2022/09/19 02:18:54;;;;;;;240.77;116.30;;;;;;;;;;5005750;28;20441;-54
2022/09/19 02:21:25;;;;;;;340.87;147.47;;;;;;;;;;5005696;28;21043;-54
2022/09/19 02:23:52;;;;;;;340.87;150.33;;;;;;;;;;5005937;28;20556;-55
2022/09/19 02:26:21;;;;;;;251.07;118.80;;;;;;;;;;5007026;28;20527;-54
2022/09/19 02:28:54;;;;;;;270.07;126.83;;;;;;;;;;5011545;28;20192;-54
2022/09/19 02:31:21;;;;;;;282.63;128.73;;;;;;;;;;5005033;28;20316;-54
2022/09/19 02:33:47;;;;;;;315.03;137.63;;;;;;;;;;5008751;28;22787;-54
2022/09/19 02:36:13;;;;;;;371.60;155.80;;;;;;;;;;5002314;28;20255;-54
2022/09/19 02:38:43;;;;;;;344.77;149.57;;;;;;;;;;4996648;28;20589;-54
2022/09/19 02:41:13;;;;;;;312.30;138.33;;;;;;;;;;5005290;28;20204;-54
2022/09/19 02:43:52;;;;;;;371.60;160.00;;;;;;;;;;4995683;28;20583;-54
2022/09/19 02:46:26;;;;;;;289.93;133.00;;;;;;;;;;5002797;28;20652;-54
2022/09/19 02:49:04;;;;;;;220.07;112.03;;;;;;;;;;5013428;28;20221;-54
2022/09/19 02:51:31;;;;;;;282.97;129.30;;;;;;;;;;5003761;28;20210;-54
2022/09/19 02:54:00;;;;;;;335.47;145.40;;;;;;;;;;5002005;28;20184;-54
2022/09/19 02:56:30;;;;;;;280.73;130.70;;;;;;;;;;5007469;28;20215;-54
2022/09/19 02:59:03;;;;;;;340.60;150.57;;;;;;;;;;4995856;28;20181;-54
2022/09/19 03:01:30;;;;;;;288.47;135.60;;;;;;;;;;5007996;28;20611;-54
2022/09/19 03:04:14;;;;;;;249.40;120.30;;;;;;;;;;5018272;28;20192;-54
2022/09/19 03:06:48;;;;;;;264.27;121.97;;;;;;;;;;5017469;28;20672;-54
2022/09/19 03:09:16;;;;;;;325.13;142.13;;;;;;;;;;5013167;28;20207;-54
2022/09/19 03:11:46;;;;;;;244.63;118.23;;;;;;;;;;5013629;28;20219;-54
2022/09/19 03:14:12;;;;;;;322.53;147.13;;;;;;;;;;5008944;28;20299;-54
2022/09/19 03:16:41;;;;;;;285.70;131.40;;;;;;;;;;5009239;28;20267;-54
2022/09/19 03:19:09;;;;;;;337.60;149.50;;;;;;;;;;4998377;28;20257;-54
2022/09/19 03:21:36;;;;;;;325.27;145.50;;;;;;;;;;4998263;28;20588;-54
2022/09/19 03:24:02;;;;;;;286.27;132.97;;;;;;;;;;5015296;28;20226;-54
2022/09/19 03:26:30;;;;;;;324.70;147.07;;;;;;;;;;5013846;28;20187;-54
2022/09/19 03:28:57;;;;;;;293.27;134.80;;;;;;;;;;5001716;28;20181;-54
2022/09/19 03:31:24;;;;;;;323.63;147.00;;;;;;;;;;4997779;28;20204;-54
2022/09/19 03:33:51;;;;;;;316.23;140.80;;;;;;;;;;5009613;28;21000;-54
2022/09/19 03:36:17;;;;;;;297.87;136.93;;;;;;;;;;4994334;28;20683;-55
2022/09/19 03:38:46;;;;;;;292.03;135.03;;;;;;;;;;4999501;28;20192;-54
2022/09/19 03:41:13;;;;;;;331.60;146.30;;;;;;;;;;5009206;28;20196;-54
2022/09/19 03:43:42;;;;;;;216.97;108.27;;;;;;;;;;5010274;28;20184;-54
2022/09/19 03:46:10;;;;;;;329.63;147.87;;;;;;;;;;5009814;28;20192;-54
2022/09/19 03:48:36;;;;;;;326.10;143.90;;;;;;;;;;4995968;28;20188;-54
2022/09/19 03:51:02;;;;;;;320.90;144.80;;;;;;;;;;4996842;28;20226;-54
2022/09/19 03:53:28;;;;;;;318.47;145.07;;;;;;;;;;4992991;28;20185;-54
2022/09/19 03:55:55;;;;;;;300.93;141.93;;;;;;;;;;4998964;28;20727;-54
2022/09/19 03:58:21;;;;;;;259.73;126.13;;;;;;;;;;4999177;28;20176;-54
2022/09/19 04:00:46;;;;;;;253.77;125.33;;;;;;;;;;5002430;28;20192;-54
2022/09/19 04:03:12;;;;;;;298.73;139.10;;;;;;;;;;4998354;28;20461;-54
2022/09/19 04:05:38;;;;;;;372.63;168.07;;;;;;;;;;4996988;28;20564;-54
2022/09/19 04:08:04;;;;;;;265.13;126.87;;;;;;;;;;5012337;28;20173;-54
2022/09/19 04:10:30;;;;;;;386.27;169.03;;;;;;;;;;5009054;28;20208;-55
2022/09/19 04:12:57;;;;;;;292.20;136.53;;;;;;;;;;5003324;28;21098;-54
2022/09/19 04:15:23;;;;;;;365.57;161.97;;;;;;;;;;5001544;28;20928;-54
2022/09/19 04:17:49;;;;;;;280.87;134.50;;;;;;;;;;4996613;28;20173;-54
2022/09/19 04:20:15;;;;;;;274.40;129.67;;;;;;;;;;5009333;28;20180;-54
2022/09/19 04:22:41;;;;;;;385.90;166.17;;;;;;;;;;4994163;28;20193;-54
2022/09/19 04:25:10;;;;;;;334.73;151.30;;;;;;;;;;4997214;28;20281;-54
2022/09/19 04:27:37;;;;;;;303.07;134.17;;;;;;;;;;5009055;28;20567;-55
2022/09/19 04:30:04;;;;;;;273.93;127.57;;;;;;;;;;5004076;28;20180;-54
2022/09/19 04:32:30;;;;;;;255.90;121.67;;;;;;;;;;5003508;28;20211;-54
2022/09/19 04:34:57;;;;;;;271.80;125.63;;;;;;;;;;5008107;28;20687;-54
2022/09/19 04:37:24;;;;;;;280.73;127.53;;;;;;;;;;4993416;28;20181;-54
2022/09/19 04:39:50;;;;;;;272.50;125.80;;;;;;;;;;5009568;28;20179;-54
2022/09/19 04:42:16;;;;;;;257.50;120.80;;;;;;;;;;5003976;28;20674;-54
2022/09/19 04:44:42;;;;;;;350.50;151.30;;;;;;;;;;5000053;28;20216;-54
2022/09/19 04:47:10;;;;;;;340.93;149.53;;;;;;;;;;5005410;28;20231;-54
2022/09/19 04:49:39;;;;;;;275.83;124.73;;;;;;;;;;5006190;28;20271;-54
2022/09/19 04:52:05;;;;;;;312.10;142.63;;;;;;;;;;4998124;28;20262;-54
2022/09/19 04:54:35;;;;;;;353.57;153.00;;;;;;;;;;5007446;28;20212;-54
2022/09/19 04:57:02;;;;;;;318.83;140.60;;;;;;;;;;4997397;28;20214;-54
2022/09/19 04:59:28;;;;;;;226.80;110.33;;;;;;;;;;5001231;28;20386;-54
2022/09/19 05:01:54;;;;;;;268.67;126.67;;;;;;;;;;5007617;28;20201;-53
2022/09/19 05:04:20;;;;;;;487.30;209.20;;;;;;;;;;4999824;28;20301;-54
2022/09/19 05:06:46;;;;;;;319.67;134.47;;;;;;;;;;5002836;28;20216;-53
2022/09/19 05:09:12;;;;;;;235.43;111.90;;;;;;;;;;5004600;28;20191;-54
2022/09/19 05:11:46;;;;;;;734.80;261.10;;;;;;;;;;4986963;28;20216;-54
2022/09/19 05:14:13;;;;;;;382.63;162.37;;;;;;;;;;4996538;28;20333;-53
2022/09/19 05:16:40;;;;;;;464.13;199.97;;;;;;;;;;4979380;28;20195;-54
2022/09/19 05:19:06;;;;;;;307.80;139.53;;;;;;;;;;4993709;28;20247;-54
2022/09/19 05:21:33;;;;;;;337.73;148.67;;;;;;;;;;5006619;28;20191;-54
2022/09/19 05:24:00;;;;;;;317.33;142.17;;;;;;;;;;5002597;28;20191;-55
2022/09/19 05:26:26;;;;;;;247.73;116.13;;;;;;;;;;5014345;28;20188;-55
2022/09/19 05:28:51;;;;;;;320.97;142.10;;;;;;;;;;5013698;28;20672;-55
2022/09/19 05:31:19;;;;;;;280.90;129.73;;;;;;;;;;5013440;28;20216;-55
2022/09/19 05:33:45;;;;;;;342.23;151.30;;;;;;;;;;5013082;28;20188;-54
2022/09/19 05:36:11;;;;;;;298.27;134.57;;;;;;;;;;5013004;28;20727;-53
2022/09/19 05:38:37;;;;;;;316.60;141.00;;;;;;;;;;4987417;28;20184;-53
2022/09/19 05:41:04;;;;;;;245.70;116.67;;;;;;;;;;5017545;28;20180;-54
2022/09/19 05:43:30;;;;;;;273.47;126.40;;;;;;;;;;5015545;28;20553;-54
2022/09/19 05:45:56;;;;;;;264.77;125.23;;;;;;;;;;5018473;28;20709;-54
2022/09/19 05:48:23;;;;;;;394.00;175.53;;;;;;;;;;5007358;28;20235;-53
2022/09/19 05:50:50;;;;;;;241.73;121.30;;;;;;;;;;5007023;28;20173;-54
2022/09/19 05:56:02;;;;;;;327.03;152.33;;;;;;;;;;5003699;28;20245;-54
2022/09/19 05:58:28;;;;;;;292.67;137.57;;;;;;;;;;5005030;28;20379;-54
2022/09/19 06:00:54;;;;;;;335.20;155.73;;;;;;;;;;5012947;28;20204;-54
2022/09/19 06:03:22;;;;;;;276.50;130.90;;;;;;;;;;5003287;28;20578;-54
2022/09/19 06:05:50;;;;;;;335.20;153.37;;;;;;;;;;5010801;28;20216;-54
2022/09/19 06:08:17;;;;;;;276.00;136.33;;;;;;;;;;5012835;28;20180;-54
2022/09/19 06:10:44;;;;;;;298.50;139.77;;;;;;;;;;5001311;28;20189;-54
2022/09/19 06:13:11;;;;;;;310.03;145.60;;;;;;;;;;5017063;28;20207;-54
2022/09/19 06:15:37;;;;;;;300.30;140.97;;;;;;;;;;5011747;28;20668;-54
2022/09/19 06:18:04;;;;;;;264.70;127.53;;;;;;;;;;5016044;28;20198;-54
2022/09/19 06:20:30;;;;;;;374.77;165.23;;;;;;;;;;4999548;28;20263;-53
2022/09/19 06:23:02;;;;;;;316.97;142.93;;;;;;;;;;5002112;28;20192;-54
2022/09/19 06:25:31;;;;;;;341.77;151.47;;;;;;;;;;5008693;28;20216;-54
2022/09/19 06:27:59;;;;;;;252.20;122.03;;;;;;;;;;5009273;28;20596;-54
2022/09/19 06:30:25;;;;;;;247.70;120.33;;;;;;;;;;4994999;28;20289;-54
2022/09/19 06:32:52;;;;;;;334.37;149.67;;;;;;;;;;5005393;28;20224;-54
2022/09/19 06:35:18;;;;;;;255.67;115.50;;;;;;;;;;5011245;28;20204;-53
2022/09/19 06:37:44;;;;;;;262.43;121.60;;;;;;;;;;5016269;28;20250;-54
2022/09/19 06:40:11;;;;;;;269.27;129.30;;;;;;;;;;5026788;28;20624;-54
2022/09/19 06:42:37;;;;;;;233.57;114.83;;;;;;;;;;5024656;28;20227;-54
2022/09/19 06:45:05;;;;;;;278.30;132.47;;;;;;;;;;5015251;28;20212;-54
2022/09/19 06:47:31;;;;;;;269.10;128.27;;;;;;;;;;5025115;28;20230;-54
2022/09/19 06:49:59;;;;;;;264.00;125.63;;;;;;;;;;5017071;28;20187;-54
2022/09/19 06:52:25;;;;;;;259.30;123.40;;;;;;;;;;5020008;28;20203;-54
2022/09/19 06:54:51;;;;;;;291.20;136.70;;;;;;;;;;5022029;28;20550;-54
2022/09/19 06:57:17;;;;;;;308.90;140.77;;;;;;;;;;5024016;28;20179;-54
2022/09/19 06:59:43;;;;;;;268.17;127.50;;;;;;;;;;5024290;28;20188;-54
2022/09/19 07:02:09;;;;;;;271.17;131.13;;;;;;;;;;5021714;28;20196;-54
2022/09/19 07:04:35;;;;;;;238.10;117.73;;;;;;;;;;5021408;28;20197;-54
2022/09/19 07:07:01;;;;;;;356.97;160.03;;;;;;;;;;5012560;28;20192;-54
2022/09/19 07:09:27;;;;;;;267.80;128.00;;;;;;;;;;5025028;28;20211;-54
2022/09/19 07:11:56;;;;;;;262.43;127.53;;;;;;;;;;5016674;28;20361;-54
2022/09/19 07:14:22;;;;;;;277.37;130.43;;;;;;;;;;5020391;28;20286;-54
2022/09/19 07:16:48;;;;;;;272.83;127.97;;;;;;;;;;4997457;28;20653;-54
2022/09/19 07:19:14;;;;;;;285.33;133.70;;;;;;;;;;5015164;28;20273;-53
2022/09/19 07:21:40;;;;;;;279.10;133.00;;;;;;;;;;5024779;28;20180;-54
2022/09/19 07:24:06;;;;;;;276.87;130.53;;;;;;;;;;5015226;28;20215;-53
2022/09/19 07:26:32;;;;;;;348.37;155.53;;;;;;;;;;5005240;28;20185;-54
2022/09/19 07:28:58;;;;;;;336.03;153.97;;;;;;;;;;5003452;28;20195;-53
2022/09/19 07:31:24;;;;;;;307.10;141.53;;;;;;;;;;5009879;28;20211;-54
2022/09/19 07:33:50;;;;;;;330.83;149.27;;;;;;;;;;5013738;28;20248;-54
2022/09/19 07:36:16;;;;;;;268.40;130.93;;;;;;;;;;5002909;28;20626;-53
2022/09/19 07:38:42;;;;;;;280.57;134.63;;;;;;;;;;5023486;28;20363;-53
2022/09/19 07:41:08;;;;;;;285.13;133.43;;;;;;;;;;5005258;28;20187;-54
2022/09/19 07:43:34;;;;;;;330.70;151.23;;;;;;;;;;5012151;28;20619;-53
2022/09/19 07:46:00;;;;;;;307.23;142.53;;;;;;;;;;5001400;28;20201;-53
2022/09/19 07:48:26;;;;;;;295.73;138.37;;;;;;;;;;4999161;28;20180;-53
2022/09/19 07:50:52;;;;;;;318.47;148.37;;;;;;;;;;5012228;28;20648;-53
2022/09/19 07:53:21;;;;;;;229.77;116.27;;;;;;;;;;5011422;28;20586;-53
2022/09/19 07:55:51;;;;;;;302.00;139.17;;;;;;;;;;5020198;28;20556;-53
2022/09/19 07:58:18;;;;;;;292.97;133.90;;;;;;;;;;5010414;28;20733;-53
2022/09/19 08:00:45;;;;;;;314.73;141.80;;;;;;;;;;5006703;28;20664;-53
2022/09/19 08:03:13;;;;;;;290.80;140.47;;;;;;;;;;5011408;28;20219;-53
2022/09/19 08:05:40;;;;;;;324.73;148.90;;;;;;;;;;4995172;28;20274;-53
2022/09/19 08:08:07;;;;;;;260.73;124.43;;;;;;;;;;5019596;28;20194;-53
2022/09/19 08:10:34;;;;;;;291.27;138.50;;;;;;;;;;5019469;28;20276;-53
2022/09/19 08:13:02;;;;;;;287.93;131.90;;;;;;;;;;5017826;28;20214;-53
2022/09/19 08:15:28;;;;;;;271.40;132.43;;;;;;;;;;5018775;28;20242;-53
2022/09/19 08:17:55;;;;;;;292.50;135.03;;;;;;;;;;5014982;28;20189;-53
2022/09/19 08:20:21;;;;;;;272.53;129.73;;;;;;;;;;5023051;28;20184;-53
2022/09/19 08:22:46;;;;;;;285.17;132.87;;;;;;;;;;5022404;28;20193;-54
2022/09/19 08:25:12;;;;;;;300.13;141.20;;;;;;;;;;5023278;28;20200;-54
2022/09/19 08:27:39;;;;;;;238.03;118.00;;;;;;;;;;5018250;28;20185;-54
2022/09/19 08:30:06;;;;;;;342.23;153.10;;;;;;;;;;5004421;28;20196;-54
2022/09/19 08:32:33;;;;;;;305.53;136.87;;;;;;;;;;5012174;28;20208;-53
2022/09/19 08:34:59;;;;;;;312.17;142.07;;;;;;;;;;5010157;28;20212;-54
2022/09/19 08:37:25;;;;;;;282.87;132.43;;;;;;;;;;5015550;28;20176;-53
2022/09/19 08:42:41;;;;;;;260.20;123.23;;;;;;;;;;5024382;28;20249;-54
2022/09/19 08:45:12;;;;;;;266.90;126.40;;;;;;;;;;5026281;28;20684;-54
2022/09/19 08:47:40;;;;;;;270.40;125.73;;;;;;;;;;5022557;28;20188;-53
2022/09/19 08:50:11;;;;;;;298.77;140.47;;;;;;;;;;5020500;28;20271;-53
2022/09/19 08:52:43;;;;;;;307.80;139.83;;;;;;;;;;5028203;28;20212;-54
2022/09/19 08:55:14;;;;;;;262.20;125.83;;;;;;;;;;5025884;28;20738;-54
2022/09/19 08:57:47;;;;;;;308.20;139.27;;;;;;;;;;5027706;28;20533;-54
2022/09/19 09:00:18;;;;;;;249.13;122.30;;;;;;;;;;5010277;28;20224;-54
2022/09/19 09:02:50;;;;;;;303.20;139.07;;;;;;;;;;5001981;28;20193;-54
2022/09/19 09:05:17;;;;;;;283.20;130.90;;;;;;;;;;5024501;28;20251;-54
2022/09/19 09:07:53;;;;;;;270.30;128.80;;;;;;;;;;5027360;28;20191;-54
2022/09/19 09:10:19;;;;;;;275.67;132.70;;;;;;;;;;5021603;28;20664;-54
2022/09/19 09:12:44;;;;;;;344.97;156.93;;;;;;;;;;5012833;28;20286;-54
2022/09/19 09:15:20;;;;;;;292.93;137.83;;;;;;;;;;5026530;28;20745;-54
2022/09/19 09:17:55;;;;;;;293.03;136.77;;;;;;;;;;5020355;28;20261;-54
2022/09/19 09:20:28;;;;;;;297.93;141.63;;;;;;;;;;5012956;28;20184;-54
2022/09/19 09:23:09;;;;;;;278.50;130.73;;;;;;;;;;5023852;28;20722;-54
2022/09/19 09:25:38;;;;;;;337.80;155.10;;;;;;;;;;5023300;28;20421;-53
2022/09/19 09:28:14;;;;;;;283.57;138.93;;;;;;;;;;5018489;28;20185;-54
2022/09/19 09:30:42;;;;;;;334.33;154.67;;;;;;;;;;5015279;28;20663;-54
2022/09/19 09:33:08;;;;;;;330.80;151.13;;;;;;;;;;5019161;28;20204;-54
2022/09/19 09:35:36;;;;;;;376.63;171.00;;;;;;;;;;5018864;28;20593;-54
2022/09/19 09:38:20;;;;;;;393.80;176.37;;;;;;;;;;5017230;28;20177;-54
2022/09/19 09:43:45;;;;;;;374.17;169.93;;;;;;;;;;5011124;28;20627;-54
2022/09/19 09:46:14;;;;;;;405.00;183.23;;;;;;;;;;5017090;28;20688;-54
2022/09/19 09:48:40;;;;;;;376.40;177.47;;;;;;;;;;5020338;28;20189;-53
2022/09/19 09:51:29;;;;;;;367.70;169.53;;;;;;;;;;5021653;28;20176;-54
2022/09/19 09:57:05;;;;;;;325.13;151.77;;;;;;;;;;5016860;28;20234;-54
2022/09/19 10:05:36;;;;;;;418.43;191.93;;;;;;;;;;5011515;28;20202;-54
2022/09/19 10:08:22;;;;;;;336.67;158.70;;;;;;;;;;5024091;28;20188;-54
2022/09/19 10:10:53;;;;;;;386.00;173.97;;;;;;;;;;5018265;28;20195;-54
2022/09/19 10:13:25;;;;;;;347.13;160.93;;;;;;;;;;5014649;28;20202;-54
2022/09/19 10:15:54;;;;;;;364.50;172.07;;;;;;;;;;5017520;28;20577;-53
2022/09/19 10:18:22;;;;;;;349.17;163.43;;;;;;;;;;5019390;28;20598;-54
2022/09/19 10:20:49;;;;;;;340.53;158.73;;;;;;;;;;5021171;28;20207;-54
2022/09/19 10:23:19;;;;;;;382.67;181.43;;;;;;;;;;5023156;28;20172;-54
2022/09/19 10:25:47;;;;;;;336.87;158.77;;;;;;;;;;5023240;28;20287;-54
2022/09/19 10:28:24;;;;;;;401.77;186.00;;;;;;;;;;5017439;28;20193;-54
2022/09/19 10:31:01;;;;;;;351.27;163.70;;;;;;;;;;5012580;28;20176;-54
2022/09/19 10:33:28;;;;;;;427.27;197.30;;;;;;;;;;5012583;28;20227;-54
2022/09/19 10:35:58;;;;;;;347.77;166.10;;;;;;;;;;5022900;28;20230;-54
2022/09/19 10:38:26;;;;;;;479.30;220.67;;;;;;;;;;5008669;28;20188;-54
2022/09/19 10:40:58;;;;;;;361.50;168.23;;;;;;;;;;5022861;28;20400;-54
2022/09/19 10:43:30;;;;;;;362.37;174.17;;;;;;;;;;5018006;28;20185;-53
2022/09/19 10:45:57;;;;;;;356.70;172.17;;;;;;;;;;5018147;28;20699;-53
2022/09/19 10:48:26;;;;;;;344.33;172.33;;;;;;;;;;5013441;28;20234;-54
2022/09/19 10:50:53;;;;;;;364.10;182.00;;;;;;;;;;5018531;28;20291;-54
2022/09/19 10:53:22;;;;;;;356.10;171.97;;;;;;;;;;5011456;28;20750;-54
2022/09/19 10:55:48;;;;;;;382.47;190.70;;;;;;;;;;5018409;28;20199;-54
2022/09/19 10:58:19;;;;;;;272.33;143.03;;;;;;;;;;5000821;28;20592;-54
2022/09/19 11:00:59;;;;;;;309.43;154.77;;;;;;;;;;5014597;28;20593;-54
2022/09/19 11:03:32;;;;;;;301.00;153.00;;;;;;;;;;5008394;28;20291;-54
2022/09/19 11:06:13;;;;;;;286.17;147.93;;;;;;;;;;5000511;28;20242;-53
2022/09/19 11:08:49;;;;;;;310.03;157.47;;;;;;;;;;5016835;28;20688;-54
2022/09/19 11:11:23;;;;;;;379.53;184.13;;;;;;;;;;5006734;28;20657;-54
2022/09/19 11:14:07;;;;;;;288.40;148.90;;;;;;;;;;5005977;28;20556;-54
2022/09/19 11:16:45;;;;;;;373.23;181.80;;;;;;;;;;5004471;28;20176;-53
2022/09/19 11:19:27;;;;;;;435.53;205.70;;;;;;;;;;5004017;28;20195;-54
2022/09/19 11:22:02;;;;;;;276.70;147.60;;;;;;;;;;5018176;28;20266;-54
2022/09/19 11:24:35;;;;;;;345.42;168.07;;;;;;;;;;5023585;28;20656;-54
2022/09/19 11:27:19;;;;;;;309.03;157.83;;;;;;;;;;5002969;28;20188;-54
2022/09/19 11:30:11;;;;;;;357.97;183.37;;;;;;;;;;5014809;28;20466;-54
2022/09/19 11:32:53;;;;;;;350.50;171.90;;;;;;;;;;4998181;28;20239;-54
2022/09/19 11:35:28;;;;;;;312.43;161.47;;;;;;;;;;5021207;28;20200;-54
2022/09/19 11:38:19;;;;;;;316.30;160.40;;;;;;;;;;5012902;28;20692;-54
2022/09/19 11:40:57;;;;;;;288.70;148.40;;;;;;;;;;5019588;28;20249;-54
2022/09/19 11:43:39;;;;;;;351.27;174.63;;;;;;;;;;5012934;28;20188;-54
2022/09/19 11:46:12;;;;;;;390.77;189.10;;;;;;;;;;5007629;28;20232;-53
2022/09/19 11:48:54;;;;;;;336.23;170.20;;;;;;;;;;5013203;28;20216;-53
2022/09/19 11:51:26;;;;;;;347.73;174.20;;;;;;;;;;5008776;28;20549;-53
2022/09/19 11:54:10;;;;;;;320.67;158.23;;;;;;;;;;5008739;28;20190;-53
2022/09/19 11:56:49;;;;;;;334.97;167.47;;;;;;;;;;5008076;28;20216;-53
2022/09/19 11:59:33;;;;;;;345.37;173.07;;;;;;;;;;5012315;28;20545;-53
2022/09/19 12:02:13;;;;;;;342.00;165.27;;;;;;;;;;5004039;28;20205;-53
2022/09/19 12:04:57;;;;;;;358.27;174.73;;;;;;;;;;5020778;28;20211;-53
2022/09/19 12:07:42;;;;;;;305.57;155.03;;;;;;;;;;5010480;28;20238;-53
2022/09/19 12:10:24;;;;;;;443.30;217.53;;;;;;;;;;5006207;28;20520;-53
2022/09/19 12:13:09;;;;;;;292.70;149.10;;;;;;;;;;5013546;28;20200;-53
2022/09/19 12:15:36;;;;;;;354.90;175.20;;;;;;;;;;5010446;28;20204;-53
2022/09/19 12:18:12;;;;;;;326.40;163.67;;;;;;;;;;5020337;28;20676;-53
2022/09/19 12:20:41;;;;;;;282.80;144.70;;;;;;;;;;5018039;28;20583;-53
2022/09/19 12:26:04;;;;;;;299.83;156.73;;;;;;;;;;5021457;28;20294;-53
2022/09/19 12:28:34;;;;;;;290.00;150.90;;;;;;;;;;5015948;28;20191;-53
2022/09/19 12:31:03;;;;;;;297.93;158.00;;;;;;;;;;5022898;28;20191;-53
2022/09/19 12:33:34;;;;;;;342.37;174.27;;;;;;;;;;5022413;28;20187;-53
2022/09/19 12:36:10;;;;;;;317.73;160.70;;;;;;;;;;5014701;28;20564;-53
2022/09/19 12:38:44;;;;;;;311.10;158.30;;;;;;;;;;5026382;28;20184;-53
2022/09/19 12:41:10;;;;;;;262.63;136.20;;;;;;;;;;5016803;28;20180;-53
2022/09/19 12:43:53;;;;;;;477.53;226.63;;;;;;;;;;5015395;28;20211;-52
2022/09/19 12:46:31;;;;;;;411.53;196.80;;;;;;;;;;5004697;28;20195;-53
2022/09/19 12:49:01;;;;;;;293.30;152.97;;;;;;;;;;5006642;28;20183;-53
2022/09/19 12:51:33;;;;;;;279.10;146.80;;;;;;;;;;5019275;28;20774;-53
2022/09/19 12:54:04;;;;;;;322.03;159.40;;;;;;;;;;5005189;28;20203;-53
2022/09/19 12:56:33;;;;;;;320.37;155.60;;;;;;;;;;5008342;28;20173;-53
2022/09/19 12:59:13;;;;;;;325.77;158.83;;;;;;;;;;5009330;28;20185;-53
2022/09/19 13:01:47;;;;;;;455.77;212.47;;;;;;;;;;4997152;28;20731;-53
2022/09/19 13:04:29;;;;;;;402.07;197.63;;;;;;;;;;4997959;28;20204;-55
2022/09/19 13:06:59;;;;;;;329.23;171.17;;;;;;;;;;5013465;28;20196;-54
2022/09/19 13:09:29;;;;;;;359.67;175.15;;;;;;;;;;5005351;28;20417;-56
2022/09/19 13:12:00;;;;;;;393.03;191.33;;;;;;;;;;5017232;28;20208;-53
2022/09/19 13:14:38;;;;;;;330.70;171.65;;;;;;;;;;5015469;28;20488;-52
2022/09/19 13:25:29;;;;;;;323.17;162.63;;;;;;;;;;5010833;28;20235;-53
2022/09/19 13:28:17;;;;;;;374.80;178.80;;;;;;;;;;5023330;28;20184;-53
2022/09/19 13:30:49;;;;;;;448.23;201.17;;;;;;;;;;5006400;28;20227;-52
2022/09/19 13:33:22;;;;;;;438.27;203.23;;;;;;;;;;5007962;28;20684;-52
2022/09/19 13:35:50;;;;;;;468.13;212.57;;;;;;;;;;5002758;28;20223;-53
2022/09/19 13:38:25;;;;;;;457.73;208.27;;;;;;;;;;5007490;28;20267;-55
2022/09/19 13:40:57;;;;;;;383.10;176.63;;;;;;;;;;5015371;28;20328;-52
2022/09/19 13:43:30;;;;;;;457.67;210.60;;;;;;;;;;5008603;28;20188;-52
2022/09/19 13:46:02;;;;;;;442.70;206.90;;;;;;;;;;5000835;28;20205;-52
2022/09/19 13:48:50;;;;;;;448.53;207.57;;;;;;;;;;5003312;28;20413;-52
2022/09/19 13:51:27;;;;;;;486.70;222.40;;;;;;;;;;4995709;28;20211;-52
2022/09/19 13:54:12;;;;;;;447.47;210.67;;;;;;;;;;5007496;28;20643;-52
2022/09/19 13:56:38;;;;;;;457.10;213.50;;;;;;;;;;4999242;28;20184;-52
2022/09/19 13:59:23;;;;;;;470.33;221.00;;;;;;;;;;4980536;28;20266;-53
2022/09/19 14:02:15;;;;;;;425.30;207.77;;;;;;;;;;5003214;28;20199;-53
2022/09/19 14:04:53;;;;;;;483.97;228.13;;;;;;;;;;4994614;28;20382;-52
2022/09/19 14:07:24;;;;;;;492.00;231.20;;;;;;;;;;5002293;28;20184;-53
2022/09/19 14:09:54;;;;;;;474.03;222.90;;;;;;;;;;5002732;28;20196;-53
2022/09/19 14:12:36;;;;;;;460.17;223.05;;;;;;;;;;5005907;28;20357;-53
2022/09/19 14:15:03;;;;;;;442.45;211.75;;;;;;;;;;5005497;28;20281;-53
2022/09/19 14:17:33;;;;;;;446.08;207.73;;;;;;;;;;4997365;28;20189;-53
2022/09/19 14:20:05;;;;;;;424.70;203.33;;;;;;;;;;4996900;28;20186;-53
2022/09/19 14:22:40;;;;;;;443.20;208.73;;;;;;;;;;5003996;28;20534;-53
2022/09/19 14:25:20;;;;;;;415.00;194.85;;;;;;;;;;5014580;28;20334;-53
2022/09/19 14:27:51;;;;;;;416.87;196.90;;;;;;;;;;5014351;28;20590;-53
2022/09/19 14:30:41;;;;;;;551.10;243.63;;;;;;;;;;4994698;28;20651;-53
2022/09/19 14:33:26;;;;;;;490.47;217.67;;;;;;;;;;4988522;28;20267;-53
2022/09/19 14:36:22;;;;;;;495.03;224.07;;;;;;;;;;4987501;28;20648;-53
2022/09/19 14:38:54;;;;;;;502.97;226.57;;;;;;;;;;4917750;28;20203;-53